Lynwood, Illinois
Current Conditions -  °F | °C
As of 8:15 AM on Thursday 29 Jan 2015 (Local Time) from KIGQ Reporting Station
Overcast Overcast  
Wind Chill: 28°   Ceiling: 2200
Heat Index: 36°   Visibility: 10mi
Dew Point: 30°   Wind: 12mph
Humidity: 80%   Direction: 320°NW
Pressure: 29.76"   Gusts: 20mph
Location:  41.5054°N, 87.5907°W
Report Text: KIGQ 291415Z AUTO 32010G17KT 10SM OVC022 02/M01 A2976 RMK AO2 T00221009
Loading
Personal Weather Stations






























Interactive Weather Map New forecast layout! Learn more

10-Day Weather Forecast

Advertisements
Track Severe Weather on mobile